Wan Hai 508 — 9VJJ6 — position and weather

sailwx.info

Track history (hours):
 
Tides and Currents Weather Stations Pressure Air Temp Water Temp Dewpoint Dewpoint Depression Visibility Wind Speed Wind Dir Waves Ship Positions

Wan Hai 508

Last reported at 2017-Apr-20 17:41 UTC. Time now 2017-Apr-25 00:50 UTC.
Position N 01°57' E 102°19'.

Length 269 m; draft 10.5 m.

Type: Cargo ship. MMSI: 565567000.

Date/timePositionNaut miles runAvg speedWind from/ knotsBaromVisibWave heightAir tempDewpointWater temp
2017-Apr-20 17:41N 01°57' E 102°19'315.0
2017-Apr-20 17:29N 01°55' E 102°21'714.9
2017-Apr-20 17:00N 01°52' E 102°28'815.0
2017-Apr-20 16:30N 01°49' E 102°35'815.4
2017-Apr-20 16:00N 01°46' E 102°42'815.5
2017-Apr-20 15:30N 01°42' E 102°49'5015.1
2017-Apr-20 12:11N 01°13' E 103°29'315.2
2017-Apr-20 11:59N 01°13' E 103°32'612.8
2017-Apr-20 11:30N 01°12' E 103°39'5 9.3
2017-Apr-20 11:00N 01°14' E 103°42'510.4
2017-Apr-20 10:30N 01°16' E 103°47'0 0.4
2017-Apr-20 09:54N 01°16' E 103°47'0 0.0
2017-Apr-20 09:30N 01°16' E 103°47'0 0.0
2017-Apr-20 09:00N 01°16' E 103°47'0 0.1
2017-Apr-20 08:27N 01°16' E 103°48'0 0.1
2017-Apr-20 08:00N 01°16' E 103°47'0 0.0
2017-Apr-20 07:30N 01°16' E 103°47'0 0.1
2017-Apr-20 06:51N 01°16' E 103°48'0 0.0
2017-Apr-20 06:30N 01°16' E 103°48'0 0.1
2017-Apr-20 05:54N 01°16' E 103°47'0 0.2
2017-Apr-20 05:30N 01°16' E 103°48'0 0.1
2017-Apr-20 04:51N 01°16' E 103°47'0 0.0
2017-Apr-20 04:30N 01°16' E 103°47'0 0.0
2017-Apr-20 03:57N 01°16' E 103°47'0 0.0
2017-Apr-20 03:30N 01°16' E 103°47'0 0.0
2017-Apr-20 02:54N 01°16' E 103°47'0 0.0
2017-Apr-20 02:30N 01°16' E 103°47'0 0.0
2017-Apr-20 02:00N 01°16' E 103°47'0 0.0
2017-Apr-20 01:30N 01°16' E 103°47'1 1.1
2017-Apr-20 01:00N 01°15' E 103°48'2 3.9
2017-Apr-20 00:30N 01°13' E 103°48'3 5.9
2017-Apr-20 00:01N 01°12' E 103°51'3 5.2
2017-Apr-19 23:31N 01°15' E 103°51'1 1.6
2017-Apr-19 22:52N 01°16' E 103°51'0 0.0
2017-Apr-19 22:28N 01°16' E 103°51'0 0.0
2017-Apr-19 21:58N 01°16' E 103°51'0 0.0
2017-Apr-19 21:07N 01°16' E 103°51'0 0.0
2017-Apr-19 21:00N 01°16' E 103°51'0 0.0
2017-Apr-19 20:31N 01°16' E 103°51'0 0.0
2017-Apr-19 20:00N 01°16' E 103°51'0 0.0
2017-Apr-19 19:28N 01°16' E 103°51'0 0.0
2017-Apr-19 18:58N 01°16' E 103°51'0 0.0
2017-Apr-19 18:22N 01°16' E 103°51'0 0.0
2017-Apr-19 17:55N 01°16' E 103°51'0 0.0
2017-Apr-19 17:09N 01°16' E 103°51'0 0.0
2017-Apr-19 17:01N 01°16' E 103°51'0 0.0
2017-Apr-19 16:22N 01°16' E 103°51'0 0.0
2017-Apr-19 15:43N 01°16' E 103°51'0 0.0
2017-Apr-19 15:31N 01°16' E 103°51'0 0.0
2017-Apr-19 14:58N 01°16' E 103°51'0 0.0
2017-Apr-19 14:31N 01°16' E 103°51'0 0.0
2017-Apr-19 13:25N 01°16' E 103°51'0 0.0
2017-Apr-19 12:58N 01°16' E 103°51'0 0.0
2017-Apr-19 12:28N 01°16' E 103°51'0 0.0
2017-Apr-19 11:58N 01°16' E 103°51'0 0.0
2017-Apr-19 11:28N 01°16' E 103°51'0 0.0
2017-Apr-19 10:48N 01°16' E 103°51'0 0.0
2017-Apr-19 10:28N 01°16' E 103°51'0 0.0
2017-Apr-19 09:58N 01°16' E 103°51'1 1.8
2017-Apr-19 09:30N 01°15' E 103°51'3 5.5
2017-Apr-19 09:00N 01°14' E 103°54'2 4.9
2017-Apr-19 08:30N 01°12' E 103°52'5 9.6
2017-Apr-19 08:00N 01°09' E 103°48'713.2
2017-Apr-19 07:30N 01°05' E 103°43'612.0
2017-Apr-19 07:00N 01°04' E 103°37'713.7
2017-Apr-19 06:30N 01°07' E 103°31'816.0
2017-Apr-19 06:01N 01°11' E 103°24'6319.5
2017-Apr-19 02:48N 01°45' E 102°32'619.3
2017-Apr-19 02:31N 01°48' E 102°27'1019.1
2017-Apr-19 02:00N 01°52' E 102°18'918.9
2017-Apr-19 01:30N 01°58' E 102°10'1019.0
2017-Apr-19 01:01N 02°04' E 102°03'  
Track history (hours):
 
Tides and Currents Weather Stations Pressure Air Temp Water Temp Dewpoint Dewpoint Depression Visibility Wind Speed Wind Dir Waves Ship Positions

Wan Hai 508

Last reported at 2017-Apr-20 17:41 UTC. Time now 2017-Apr-25 00:50 UTC.
Position N 01°57' E 102°19'.

Length 269 m; draft 10.5 m.

Type: Cargo ship. MMSI: 565567000.

Date/timePositionNaut miles runAvg speedWind from/ knotsBaromVisibWave heightAir tempDewpointWater temp
2017-Apr-20 17:41N 01°57' E 102°19'315.0
2017-Apr-20 17:29N 01°55' E 102°21'714.9
2017-Apr-20 17:00N 01°52' E 102°28'815.0
2017-Apr-20 16:30N 01°49' E 102°35'815.4
2017-Apr-20 16:00N 01°46' E 102°42'815.5
2017-Apr-20 15:30N 01°42' E 102°49'5015.1
2017-Apr-20 12:11N 01°13' E 103°29'315.2
2017-Apr-20 11:59N 01°13' E 103°32'612.8
2017-Apr-20 11:30N 01°12' E 103°39'5 9.3
2017-Apr-20 11:00N 01°14' E 103°42'510.4
2017-Apr-20 10:30N 01°16' E 103°47'0 0.4
2017-Apr-20 09:54N 01°16' E 103°47'0 0.0
2017-Apr-20 09:30N 01°16' E 103°47'0 0.0
2017-Apr-20 09:00N 01°16' E 103°47'0 0.1
2017-Apr-20 08:27N 01°16' E 103°48'0 0.1
2017-Apr-20 08:00N 01°16' E 103°47'0 0.0
2017-Apr-20 07:30N 01°16' E 103°47'0 0.1
2017-Apr-20 06:51N 01°16' E 103°48'0 0.0
2017-Apr-20 06:30N 01°16' E 103°48'0 0.1
2017-Apr-20 05:54N 01°16' E 103°47'0 0.2
2017-Apr-20 05:30N 01°16' E 103°48'0 0.1
2017-Apr-20 04:51N 01°16' E 103°47'0 0.0
2017-Apr-20 04:30N 01°16' E 103°47'0 0.0
2017-Apr-20 03:57N 01°16' E 103°47'0 0.0
2017-Apr-20 03:30N 01°16' E 103°47'0 0.0
2017-Apr-20 02:54N 01°16' E 103°47'0 0.0
2017-Apr-20 02:30N 01°16' E 103°47'0 0.0
2017-Apr-20 02:00N 01°16' E 103°47'0 0.0
2017-Apr-20 01:30N 01°16' E 103°47'1 1.1
2017-Apr-20 01:00N 01°15' E 103°48'2 3.9
2017-Apr-20 00:30N 01°13' E 103°48'3 5.9
2017-Apr-20 00:01N 01°12' E 103°51'3 5.2
2017-Apr-19 23:31N 01°15' E 103°51'1 1.6
2017-Apr-19 22:52N 01°16' E 103°51'0 0.0
2017-Apr-19 22:28N 01°16' E 103°51'0 0.0
2017-Apr-19 21:58N 01°16' E 103°51'0 0.0
2017-Apr-19 21:07N 01°16' E 103°51'0 0.0
2017-Apr-19 21:00N 01°16' E 103°51'0 0.0
2017-Apr-19 20:31N 01°16' E 103°51'0 0.0
2017-Apr-19 20:00N 01°16' E 103°51'0 0.0
2017-Apr-19 19:28N 01°16' E 103°51'0 0.0
2017-Apr-19 18:58N 01°16' E 103°51'0 0.0
2017-Apr-19 18:22N 01°16' E 103°51'0 0.0
2017-Apr-19 17:55N 01°16' E 103°51'0 0.0
2017-Apr-19 17:09N 01°16' E 103°51'0 0.0
2017-Apr-19 17:01N 01°16' E 103°51'0 0.0
2017-Apr-19 16:22N 01°16' E 103°51'0 0.0
2017-Apr-19 15:43N 01°16' E 103°51'0 0.0
2017-Apr-19 15:31N 01°16' E 103°51'0 0.0
2017-Apr-19 14:58N 01°16' E 103°51'0 0.0
2017-Apr-19 14:31N 01°16' E 103°51'0 0.0
2017-Apr-19 13:25N 01°16' E 103°51'0 0.0
2017-Apr-19 12:58N 01°16' E 103°51'0 0.0
2017-Apr-19 12:28N 01°16' E 103°51'0 0.0
2017-Apr-19 11:58N 01°16' E 103°51'0 0.0
2017-Apr-19 11:28N 01°16' E 103°51'0 0.0
2017-Apr-19 10:48N 01°16' E 103°51'0 0.0
2017-Apr-19 10:28N 01°16' E 103°51'0 0.0
2017-Apr-19 09:58N 01°16' E 103°51'1 1.8
2017-Apr-19 09:30N 01°15' E 103°51'3 5.5
2017-Apr-19 09:00N 01°14' E 103°54'2 4.9
2017-Apr-19 08:30N 01°12' E 103°52'5 9.6
2017-Apr-19 08:00N 01°09' E 103°48'713.2
2017-Apr-19 07:30N 01°05' E 103°43'612.0
2017-Apr-19 07:00N 01°04' E 103°37'713.7
2017-Apr-19 06:30N 01°07' E 103°31'816.0
2017-Apr-19 06:01N 01°11' E 103°24'6319.5
2017-Apr-19 02:48N 01°45' E 102°32'619.3
2017-Apr-19 02:31N 01°48' E 102°27'1019.1
2017-Apr-19 02:00N 01°52' E 102°18'918.9
2017-Apr-19 01:30N 01°58' E 102°10'1019.0
2017-Apr-19 01:01N 02°04' E 102°03'  

Dump ship's entire track history